PAVC

Details ICAO PAVC (KVC)
Name KING COVE
Region USA (Alaska)
Timezone America/Nome (UTC-9.0)
Plans Departing 1
Arriving 4
Stats Elevation 155 ft / 47 m (AMSL)
Location 55.116347° -162.266228°
Runways 1
Magnetic Variation 10.948° E
Sunrise 2017-12-14 19:09:33 UTC / 2017-12-14 10:09:33 Local
Sunset 2017-12-15 02:21:10 UTC / 2017-12-14 17:21:10 Local
Advertisement - Login to hide

Runways

ID Width Length Bearing (true) Bearing (mag) Surface Threshold Offset Overrun Length
07 115 ft / 35 m 3,350 ft / 1,021 m 84.99° 74.04° Gravel 0 ft / 0 m 0 ft / 0 m
25 115 ft / 35 m 3,350 ft / 1,021 m 265.01° 254.06° Gravel 0 ft / 0 m 0 ft / 0 m

Map

Weather


0- 5 10 15 20 25 30 35+ Temperature / ° C

Clouds and Precipitation
Forecast for 2017-12-15 06:00 UTC. Updated an hour ago

Ground ~20,000 ft ~40,000 ft Winds

METAR

PAVC 150156Z AUTO 10015KT 10SM OVC023 03/M01 A2943 RMK AO2 SLP971 T00281006

TAF

Not found

Frequencies

Recorded 118.32 MHz ASOS
Unicom 122.90 MHz CTAF
Warning: Do not use this data for real-world aviation or navigation. No guarantee of current accuracy is given.